createdAt,value
2019-06-27T00:00:01.198Z,1010.22
2019-06-27T00:05:01.407Z,1010.25
2019-06-27T00:10:01.543Z,1010.23
2019-06-27T00:15:01.726Z,1010.29
2019-06-27T00:20:01.929Z,1010.28
2019-06-27T00:25:02.197Z,1010.28
2019-06-27T00:30:01.354Z,1010.31
2019-06-27T00:35:01.526Z,1010.34
2019-06-27T00:40:01.677Z,1010.35
2019-06-27T00:45:01.982Z,1010.31
2019-06-27T00:50:01.103Z,1010.29
2019-06-27T00:55:01.240Z,1010.34
2019-06-27T01:00:01.760Z,1010.27
2019-06-27T01:05:02.186Z,1010.32
2019-06-27T01:10:01.459Z,1010.29
2019-06-27T01:15:01.743Z,1010.35
2019-06-27T01:20:02.016Z,1010.34
2019-06-27T01:25:01.395Z,1010.39
2019-06-27T01:30:01.894Z,1010.42
2019-06-27T01:35:04.372Z,1010.42
2019-06-27T01:40:01.666Z,1010.42
2019-06-27T01:45:01.933Z,1010.45
2019-06-27T01:50:02.071Z,1010.37
2019-06-27T01:55:01.219Z,1010.38
2019-06-27T02:00:01.327Z,1010.4
2019-06-27T02:05:01.566Z,1010.45
2019-06-27T02:10:01.698Z,1010.41
2019-06-27T02:15:01.837Z,1010.42
2019-06-27T02:20:01.998Z,1010.45
2019-06-27T02:25:01.226Z,1010.45
2019-06-27T02:30:01.398Z,1010.44
2019-06-27T02:35:01.516Z,1010.48
2019-06-27T02:40:01.524Z,1010.52
2019-06-27T02:45:01.719Z,1010.59
2019-06-27T02:50:01.879Z,1010.64
2019-06-27T02:55:02.126Z,1010.65
2019-06-27T03:00:01.287Z,1010.68
2019-06-27T03:05:01.504Z,1010.65
2019-06-27T03:10:01.644Z,1010.65
2019-06-27T03:15:01.868Z,1010.7
2019-06-27T03:20:02.056Z,1010.77
2019-06-27T03:25:01.262Z,1010.8
2019-06-27T03:30:01.393Z,1010.79
2019-06-27T03:35:01.541Z,1010.75
2019-06-27T03:40:01.719Z,1010.76
2019-06-27T03:45:01.942Z,1010.83
2019-06-27T03:50:02.118Z,1010.9
2019-06-27T03:55:01.266Z,1010.93
2019-06-27T04:00:01.415Z,1010.9
2019-06-27T04:05:01.663Z,1011.01
2019-06-27T04:10:01.819Z,1010.99
2019-06-27T04:15:02.019Z,1011.01
2019-06-27T04:20:01.183Z,1011.02
2019-06-27T04:25:01.430Z,1011.05
2019-06-27T04:30:01.647Z,1011.07
2019-06-27T04:35:01.984Z,1011.06
2019-06-27T04:40:01.894Z,1011.06
2019-06-27T04:45:02.092Z,1011.15
2019-06-27T04:50:01.245Z,1011.24
2019-06-27T04:55:03.894Z,1011.18
2019-06-27T05:00:01.506Z,1011.19
2019-06-27T05:05:02.319Z,1011.19
2019-06-27T05:10:01.553Z,1011.28
2019-06-27T05:15:01.688Z,1011.25
2019-06-27T05:20:03.293Z,1011.29
2019-06-27T05:25:01.757Z,1011.34
2019-06-27T05:30:09.289Z,1011.37
2019-06-27T05:35:01.388Z,1011.41
2019-06-27T05:40:01.538Z,1011.49
2019-06-27T05:45:01.755Z,1011.52
2019-06-27T05:50:01.901Z,1011.53
2019-06-27T05:55:02.498Z,1011.53
2019-06-27T06:00:01.636Z,1011.56
2019-06-27T06:05:01.850Z,1011.59
2019-06-27T06:10:02.239Z,1011.62
2019-06-27T06:15:01.381Z,1011.63
2019-06-27T06:20:01.518Z,1011.67
2019-06-27T06:25:01.945Z,1011.64
2019-06-27T06:30:01.168Z,1011.68
2019-06-27T06:35:01.326Z,1011.67
2019-06-27T06:40:01.467Z,1011.7
2019-06-27T06:45:02.061Z,1011.74
2019-06-27T06:50:01.239Z,1011.7
2019-06-27T06:55:01.828Z,1011.69
2019-06-27T07:00:02.065Z,1011.7
2019-06-27T07:05:01.283Z,1011.76
2019-06-27T07:10:01.420Z,1011.86
2019-06-27T07:15:01.607Z,1011.89
2019-06-27T07:20:01.941Z,1011.88
2019-06-27T07:25:02.221Z,1011.84
2019-06-27T07:30:01.418Z,1011.82
2019-06-27T07:35:01.594Z,1011.92
2019-06-27T07:40:01.743Z,1011.93
2019-06-27T07:45:02.302Z,1011.87
2019-06-27T07:50:01.466Z,1011.96
2019-06-27T07:55:01.772Z,1011.95
2019-06-27T08:00:02.000Z,1011.95
2019-06-27T08:05:01.234Z,1011.93
2019-06-27T08:10:01.365Z,1011.95
2019-06-27T08:15:01.510Z,1012.04
2019-06-27T08:20:01.648Z,1011.96
2019-06-27T08:25:01.784Z,1011.95
2019-06-27T08:30:01.927Z,1011.93
2019-06-27T08:35:02.113Z,1011.93
2019-06-27T08:40:01.252Z,1011.86
2019-06-27T08:45:01.438Z,1011.92
2019-06-27T08:50:01.592Z,1011.94
2019-06-27T08:55:01.720Z,1011.9
2019-06-27T09:00:01.894Z,1011.93
2019-06-27T09:05:02.073Z,1011.89
2019-06-27T09:10:01.201Z,1011.8
2019-06-27T09:15:01.376Z,1011.84
2019-06-27T09:20:01.521Z,1011.78
2019-06-27T09:25:01.927Z,1011.82
2019-06-27T09:30:01.417Z,1011.84
2019-06-27T09:35:01.721Z,1011.84
2019-06-27T09:40:01.907Z,1011.84
2019-06-27T09:45:02.107Z,1011.85
2019-06-27T09:50:01.230Z,1011.79
2019-06-27T09:55:01.881Z,1011.76
2019-06-27T10:00:02.152Z,1011.69
2019-06-27T10:05:01.374Z,1011.66
2019-06-27T10:10:01.511Z,1011.65
2019-06-27T10:15:01.637Z,1011.67
2019-06-27T10:20:01.806Z,1011.62
2019-06-27T10:25:02.009Z,1011.61
2019-06-27T10:30:01.164Z,1011.58
2019-06-27T10:35:01.333Z,1011.51
2019-06-27T10:40:01.495Z,1011.48
2019-06-27T10:45:02.120Z,1011.38
2019-06-27T10:50:01.388Z,1011.4
2019-06-27T10:55:01.523Z,1011.44
2019-06-27T11:00:02.147Z,1011.42
2019-06-27T11:05:01.459Z,1011.34
2019-06-27T11:10:01.642Z,1011.34
2019-06-27T11:15:01.783Z,1011.22
2019-06-27T11:20:02.064Z,1011.11
2019-06-27T11:25:01.708Z,1011.12
2019-06-27T11:30:01.310Z,1011.05
2019-06-27T11:35:01.562Z,1011.01
2019-06-27T11:40:01.807Z,1010.95
2019-06-27T11:45:02.009Z,1011.02
2019-06-27T11:50:01.147Z,1010.95
2019-06-27T11:55:01.486Z,1010.88
2019-06-27T12:00:01.765Z,1010.92
2019-06-27T12:05:02.120Z,1010.96
2019-06-27T12:10:01.293Z,1010.86
2019-06-27T12:15:01.470Z,1010.8
2019-06-27T12:20:01.673Z,1010.77
2019-06-27T12:25:01.837Z,1010.74
2019-06-27T12:30:01.942Z,1010.68
2019-06-27T12:35:02.132Z,1010.7
2019-06-27T12:40:01.262Z,1010.63
2019-06-27T12:45:01.432Z,1010.68
2019-06-27T12:50:02.961Z,1010.55
2019-06-27T12:55:01.447Z,1010.56
2019-06-27T13:00:01.559Z,1010.48
2019-06-27T13:05:01.814Z,1010.49
2019-06-27T13:10:01.966Z,1010.49
2019-06-27T13:15:02.134Z,1010.47
2019-06-27T13:20:01.357Z,1010.46
2019-06-27T13:25:01.357Z,1010.34
2019-06-27T13:30:01.498Z,1010.32
2019-06-27T13:35:01.675Z,1010.29
2019-06-27T13:40:04.580Z,1010.27
2019-06-27T13:45:02.049Z,1010.22
2019-06-27T13:50:01.180Z,1010.18
2019-06-27T13:55:01.319Z,1010.13
2019-06-27T14:00:01.634Z,1010.16
2019-06-27T14:05:01.926Z,1010.1
2019-06-27T14:10:01.129Z,1009.98
2019-06-27T14:15:01.308Z,1009.92
2019-06-27T14:20:01.957Z,1009.91
2019-06-27T14:25:02.164Z,1009.95
2019-06-27T14:30:01.288Z,1010.01
2019-06-27T14:35:14.883Z,1009.97
2019-06-27T14:40:01.342Z,1009.98
2019-06-27T14:45:01.557Z,1009.88
2019-06-27T14:50:01.722Z,1009.89
2019-06-27T14:55:01.841Z,1009.86
2019-06-27T15:00:01.989Z,1009.87
2019-06-27T15:05:01.201Z,1009.76
2019-06-27T15:10:01.374Z,1009.82
2019-06-27T15:15:01.516Z,1009.87
2019-06-27T15:20:01.664Z,1009.83
2019-06-27T15:25:01.783Z,1009.77
2019-06-27T15:30:02.400Z,1009.74
2019-06-27T15:35:01.803Z,1009.81
2019-06-27T15:40:01.972Z,1009.74
2019-06-27T15:45:02.382Z,1009.76
2019-06-27T15:50:01.763Z,1009.74
2019-06-27T15:55:01.910Z,1009.71
2019-06-27T16:00:02.073Z,1009.67
2019-06-27T16:05:01.332Z,1009.66
2019-06-27T16:10:01.460Z,1009.65
2019-06-27T16:15:01.656Z,1009.51
2019-06-27T16:20:01.767Z,1009.55
2019-06-27T16:25:02.045Z,1009.41
2019-06-27T16:30:01.336Z,1009.38
2019-06-27T16:35:01.513Z,1009.43
2019-06-27T16:40:01.640Z,1009.38
2019-06-27T16:45:01.878Z,1009.37
2019-06-27T16:50:02.014Z,1009.38
2019-06-27T16:55:01.290Z,1009.34
2019-06-27T17:00:01.482Z,1009.34
2019-06-27T17:05:01.659Z,1009.33
2019-06-27T17:10:01.894Z,1009.31
2019-06-27T17:15:02.072Z,1009.36
2019-06-27T17:20:01.253Z,1009.34
2019-06-27T17:25:01.456Z,1009.3
2019-06-27T17:30:01.971Z,1009.38
2019-06-27T17:35:01.169Z,1009.37
2019-06-27T17:40:01.305Z,1009.35
2019-06-27T17:45:01.493Z,1009.34
2019-06-27T17:50:01.646Z,1009.38
2019-06-27T17:55:01.805Z,1009.35
2019-06-27T18:00:01.940Z,1009.34
2019-06-27T18:05:02.086Z,1009.37
2019-06-27T18:10:01.211Z,1009.33
2019-06-27T18:15:01.364Z,1009.32
2019-06-27T18:20:01.496Z,1009.39
2019-06-27T18:25:01.939Z,1009.34
2019-06-27T18:30:02.126Z,1009.31
2019-06-27T18:35:01.272Z,1009.28
2019-06-27T18:40:01.389Z,1009.19
2019-06-27T18:45:01.636Z,1009.34
2019-06-27T18:50:01.834Z,1009.28
2019-06-27T18:55:01.964Z,1009.25
2019-06-27T19:00:02.310Z,1009.24
2019-06-27T19:05:05.012Z,1009.29
2019-06-27T19:10:01.528Z,1009.29
2019-06-27T19:15:01.653Z,1009.29
2019-06-27T19:20:01.813Z,1009.26
2019-06-27T19:25:01.922Z,1009.27
2019-06-27T19:30:02.064Z,1009.3
2019-06-27T19:35:01.221Z,1009.33
2019-06-27T19:40:01.413Z,1009.35
2019-06-27T19:45:01.561Z,1009.34
2019-06-27T19:50:01.720Z,1009.5
2019-06-27T19:55:01.910Z,1009.57
2019-06-27T20:00:02.103Z,1009.64
2019-06-27T20:05:01.236Z,1009.62
2019-06-27T20:10:01.387Z,1009.59
2019-06-27T20:15:01.873Z,1009.73
2019-06-27T20:20:02.067Z,1009.79
2019-06-27T20:25:01.199Z,1009.81
2019-06-27T20:30:01.372Z,1009.81
2019-06-27T20:35:01.543Z,1009.84
2019-06-27T20:40:01.741Z,1009.83
2019-06-27T20:45:01.888Z,1009.88
2019-06-27T20:50:02.048Z,1009.84
2019-06-27T20:55:01.184Z,1009.83
2019-06-27T21:00:01.298Z,1009.85
2019-06-27T21:05:01.459Z,1009.9
2019-06-27T21:10:01.603Z,1009.92
2019-06-27T21:15:01.745Z,1009.98
2019-06-27T21:20:01.970Z,1009.95
2019-06-27T21:25:02.146Z,1009.96
2019-06-27T21:30:01.299Z,1010.06
2019-06-27T21:35:01.449Z,1010.03
2019-06-27T21:40:01.636Z,1010.09
2019-06-27T21:45:01.883Z,1010.15
2019-06-27T21:50:02.037Z,1010.17
2019-06-27T21:55:01.181Z,1010.1
2019-06-27T22:00:01.370Z,1010.08
2019-06-27T22:05:01.544Z,1010.09
2019-06-27T22:10:01.673Z,1010.09
2019-06-27T22:15:01.796Z,1010.17
2019-06-27T22:20:14.453Z,1010.12
2019-06-27T22:25:01.909Z,1010.12
2019-06-27T22:30:02.208Z,1010.12
2019-06-27T22:35:01.392Z,1010.12
2019-06-27T22:40:01.598Z,1010.12
2019-06-27T22:45:01.737Z,1010.09
2019-06-27T22:50:01.870Z,1010.07
2019-06-27T22:55:02.008Z,1010.03
2019-06-27T23:00:01.216Z,1009.99
2019-06-27T23:05:01.386Z,1009.91
2019-06-27T23:10:01.635Z,1009.91
2019-06-27T23:15:01.937Z,1009.95
2019-06-27T23:20:01.268Z,1009.91
2019-06-27T23:25:01.535Z,1009.9
2019-06-27T23:30:01.910Z,1009.94
2019-06-27T23:35:01.114Z,1009.94
2019-06-27T23:40:13.321Z,1009.86
2019-06-27T23:45:01.979Z,1009.86
2019-06-27T23:50:01.166Z,1009.81
2019-06-27T23:55:01.349Z,1009.82
